Time;durP1;ratioP1;P1;durP2;ratioP2;P2;SDS_P1;SDS_P2;PMS_P1;PMS_P2;Temp;Humidity;BMP_temperature;BMP_pressure;BME280_temperature;BME280_humidity;BME280_pressure;Samples;Min_cycle;Max_cycle;Signal;HPM_P1;HPM_P2
2021/12/25 00:01:28;;;;;;;23.15;15.55;;;;;;;11.28;93.31;99836.84;4938134;29;20051;-67
2021/12/25 00:03:56;;;;;;;23.98;14.10;;;;;;;11.13;93.76;99842.19;4921767;29;20055;-66
2021/12/25 00:06:24;;;;;;;21.92;13.70;;;;;;;11.17;94.23;99834.84;4919027;29;20409;-67
2021/12/25 00:08:52;;;;;;;20.58;13.68;;;;;;;11.29;93.71;99826.63;4919108;29;20421;-67
2021/12/25 00:11:19;;;;;;;18.48;12.32;;;;;;;11.06;93.91;99825.38;4918832;29;20063;-67
2021/12/25 00:13:46;;;;;;;18.60;11.73;;;;;;;11.19;93.63;99829.81;4917450;29;20467;-67
2021/12/25 00:16:14;;;;;;;18.33;11.70;;;;;;;11.31;93.15;99816.06;4917685;29;20066;-68
2021/12/25 00:18:41;;;;;;;15.77;10.57;;;;;;;11.30;92.69;99818.00;4919031;29;20500;-67
2021/12/25 00:21:09;;;;;;;16.48;11.05;;;;;;;11.35;92.42;99820.53;4917862;29;20063;-66
2021/12/25 00:23:38;;;;;;;17.73;12.07;;;;;;;11.16;92.62;99811.16;4917199;29;20543;-67
2021/12/25 00:26:22;;;;;;;19.10;11.63;;;;;;;11.13;92.58;99809.91;4918434;29;20059;-67
2021/12/25 00:29:05;;;;;;;16.92;11.52;;;;;;;11.20;92.99;99812.13;4904202;29;20063;-67
2021/12/25 00:31:55;;;;;;;18.10;10.77;;;;;;;11.26;91.96;99800.53;4918845;29;20492;-67
2021/12/25 00:34:23;;;;;;;17.58;11.13;;;;;;;11.13;92.10;99804.41;4917328;29;20055;-67
2021/12/25 00:36:53;;;;;;;19.45;11.00;;;;;;;11.23;91.80;99795.69;4917721;29;20055;-66
2021/12/25 00:39:20;;;;;;;20.58;11.55;;;;;;;11.23;91.60;99789.38;4917144;29;20055;-66
2021/12/25 00:41:47;;;;;;;18.70;11.30;;;;;;;11.50;90.62;99785.19;4917081;29;20071;-67
2021/12/25 00:44:14;;;;;;;17.40;10.15;;;;;;;11.46;90.30;99770.47;4917428;29;20572;-67
2021/12/25 00:46:42;;;;;;;18.17;9.35;;;;;;;11.25;90.54;99779.63;4918561;29;20052;-67
2021/12/25 00:49:09;;;;;;;15.43;9.10;;;;;;;10.94;91.32;99784.81;4918810;29;20052;-66
2021/12/25 00:51:36;;;;;;;14.20;9.02;;;;;;;10.96;92.12;99782.53;4918773;29;20056;-67
2021/12/25 00:54:04;;;;;;;15.27;9.52;;;;;;;10.93;92.12;99785.16;4917778;29;20481;-67
2021/12/25 00:56:31;;;;;;;17.35;9.90;;;;;;;11.07;92.09;99788.44;4916310;29;20064;-68
2021/12/25 00:58:59;;;;;;;18.10;10.30;;;;;;;11.08;91.78;99785.31;4917281;29;20620;-68
2021/12/25 01:01:26;;;;;;;17.95;10.00;;;;;;;11.08;91.66;99782.56;4917068;29;20060;-67
2021/12/25 01:03:54;;;;;;;18.80;9.43;;;;;;;11.02;92.00;99777.59;4916770;29;20079;-66
2021/12/25 01:06:22;;;;;;;14.00;8.77;;;;;;;11.01;92.23;99776.81;4920627;29;20489;-68
2021/12/25 01:08:49;;;;;;;16.35;9.05;;;;;;;11.07;91.68;99788.44;4938287;29;20392;-67
2021/12/25 01:11:19;;;;;;;14.65;8.25;;;;;;;11.07;92.06;99794.72;4939581;29;20059;-67
2021/12/25 01:13:56;;;;;;;13.98;8.32;;;;;;;11.04;91.20;99789.09;4939120;29;20066;-67
2021/12/25 01:36:40;;;;;;;20.88;12.25;;;;;;;10.62;92.57;99820.56;4946020;28;20064;-67
2021/12/25 01:48:27;;;;;;;19.05;12.45;;;;;;;10.96;91.84;99812.84;4926956;29;20062;-67
2021/12/25 01:50:54;;;;;;;20.95;12.65;;;;;;;10.93;91.80;99823.72;4907224;29;20056;-67
2021/12/25 01:53:22;;;;;;;23.85;12.20;;;;;;;11.06;91.34;99817.94;4938704;29;20051;-67
2021/12/25 01:55:49;;;;;;;18.90;11.25;;;;;;;10.79;91.19;99814.94;4939551;29;20495;-66
2021/12/25 01:58:16;;;;;;;19.15;11.73;;;;;;;10.60;93.08;99820.88;4938958;29;20051;-67
2021/12/25 02:00:48;;;;;;;19.67;12.35;;;;;;;10.56;93.68;99816.41;4953947;28;20392;-66
2021/12/25 02:03:18;;;;;;;16.77;12.02;;;;;;;10.93;92.67;99810.75;4928496;29;20055;-67
2021/12/25 02:05:46;;;;;;;20.30;11.05;;;;;;;10.97;91.93;99810.88;4919953;29;20056;-66
2021/12/25 02:08:24;;;;;;;18.33;11.68;;;;;;;11.07;91.05;99814.00;4918708;29;20052;-67
2021/12/25 02:10:52;;;;;;;16.10;11.20;;;;;;;11.13;90.19;99820.94;4919120;29;20071;-67
2021/12/25 02:13:22;;;;;;;16.05;9.73;;;;;;;10.98;90.20;99816.03;4919808;29;20052;-67
2021/12/25 02:15:52;;;;;;;16.45;9.65;;;;;;;10.93;90.58;99812.72;4918500;29;20055;-66
2021/12/25 02:18:32;;;;;;;14.57;9.65;;;;;;;10.97;90.62;99816.38;4888834;29;20078;-66
2021/12/25 02:21:11;;;;;;;15.13;9.48;;;;;;;10.94;89.62;99817.88;4906259;29;20063;-67
2021/12/25 02:23:39;;;;;;;16.50;8.85;;;;;;;10.68;91.56;99809.03;4904183;29;20076;-66
2021/12/25 02:26:08;;;;;;;14.68;8.77;;;;;;;10.91;91.19;99815.00;4919350;29;20052;-66
2021/12/25 02:28:35;;;;;;;15.00;8.40;;;;;;;10.95;90.18;99813.16;4918593;29;20051;-66
2021/12/25 02:31:08;;;;;;;15.93;9.48;;;;;;;10.90;90.09;99816.13;4918335;29;20055;-67
2021/12/25 02:33:38;;;;;;;16.88;9.13;;;;;;;10.79;90.81;99818.47;4919250;29;20536;-67
2021/12/25 02:36:06;;;;;;;17.48;9.68;;;;;;;10.82;90.63;99817.81;4920535;29;20063;-67
2021/12/25 02:38:35;;;;;;;18.33;9.52;;;;;;;10.86;90.28;99809.69;4919361;29;20089;-66
2021/12/25 02:41:03;;;;;;;14.55;9.05;;;;;;;10.93;91.29;99809.94;4918637;29;20055;-67
2021/12/25 02:43:31;;;;;;;14.98;9.48;;;;;;;11.02;90.00;99807.91;4918816;29;20056;-66
2021/12/25 02:46:03;;;;;;;13.77;8.73;;;;;;;10.51;91.43;99811.09;4918137;29;20048;-66
2021/12/25 02:48:33;;;;;;;16.60;10.02;;;;;;;10.55;93.04;99809.28;4920188;29;20181;-66
2021/12/25 02:51:01;;;;;;;15.65;9.50;;;;;;;10.81;92.37;99818.94;4919318;29;20056;-67
2021/12/25 02:53:29;;;;;;;16.13;9.27;;;;;;;10.91;91.42;99804.75;4919489;29;20056;-67
2021/12/25 02:55:56;;;;;;;15.45;9.88;;;;;;;10.99;91.11;99805.81;4917810;29;20060;-67
2021/12/25 02:58:27;;;;;;;16.08;9.43;;;;;;;11.09;90.44;99803.47;4918500;29;20055;-67
2021/12/25 03:01:05;;;;;;;13.85;9.30;;;;;;;11.10;90.25;99801.53;4918445;29;20076;-68
2021/12/25 03:03:33;;;;;;;15.07;9.30;;;;;;;11.12;90.05;99810.25;4931842;29;20055;-67
2021/12/25 03:06:05;;;;;;;15.88;9.85;;;;;;;11.00;90.30;99810.22;4939065;29;20051;-67
2021/12/25 03:08:32;;;;;;;16.10;9.63;;;;;;;10.88;90.86;99812.91;4938955;29;20051;-66
2021/12/25 03:11:03;;;;;;;15.95;10.40;;;;;;;10.98;90.98;99815.25;4937016;29;20047;-67
2021/12/25 03:13:34;;;;;;;16.77;9.70;;;;;;;11.15;90.53;99815.91;4937166;29;20059;-66
2021/12/25 03:16:07;;;;;;;15.73;9.77;;;;;;;11.18;89.55;99812.47;4937149;29;20299;-67
2021/12/25 03:18:42;;;;;;;18.13;10.23;;;;;;;10.64;91.41;99813.59;4937293;29;20063;-67
2021/12/25 03:21:10;;;;;;;18.25;10.85;;;;;;;10.69;91.82;99807.06;4938721;29;20052;-67
2021/12/25 03:23:38;;;;;;;16.98;10.70;;;;;;;11.12;90.26;99818.53;4936530;29;20051;-67
2021/12/25 03:26:07;;;;;;;20.35;10.80;;;;;;;11.06;89.53;99803.34;4937341;29;20059;-66
2021/12/25 03:28:39;;;;;;;18.25;10.23;;;;;;;11.10;90.04;99801.53;4937198;29;20066;-66
2021/12/25 03:31:14;;;;;;;19.65;10.27;;;;;;;10.97;89.80;99803.41;4921100;29;20513;-66
2021/12/25 03:33:43;;;;;;;15.40;10.20;;;;;;;11.08;89.83;99810.13;4921512;29;20420;-68
2021/12/25 03:36:10;;;;;;;17.33;9.85;;;;;;;11.08;89.83;99809.31;4952926;29;20500;-67
2021/12/25 03:38:40;;;;;;;;;;;;;;;10.97;90.21;99817.19;4938725;29;20051;-67
2021/12/25 03:41:08;;;;;;;23.35;11.45;;;;;;;10.94;90.50;99817.88;4936958;29;19942;-67
2021/12/25 03:43:38;;;;;;;17.92;10.45;;;;;;;11.26;89.76;99819.81;4936911;29;20051;-67
2021/12/25 03:46:09;;;;;;;18.73;10.90;;;;;;;11.08;89.86;99820.34;4936269;29;20143;-68
2021/12/25 03:59:36;;;;;;;16.85;10.85;;;;;;;11.04;90.32;99828.47;4937846;29;20059;-66
2021/12/25 04:02:12;;;;;;;17.25;10.15;;;;;;;11.11;90.00;99828.75;4934360;29;20056;-67
2021/12/25 04:04:44;;;;;;;17.73;10.77;;;;;;;11.06;90.17;99836.41;4917297;29;20411;-67
2021/12/25 04:07:30;;;;;;;20.63;10.60;;;;;;;11.17;90.51;99834.84;4919004;29;20052;-67
2021/12/25 04:10:02;;;;;;;16.63;10.50;;;;;;;11.11;90.29;99833.44;4917127;29;20063;-68
2021/12/25 04:12:30;;;;;;;19.30;11.75;;;;;;;10.95;90.34;99832.44;4917486;29;20059;-68
2021/12/25 04:14:57;;;;;;;21.80;11.77;;;;;;;10.94;91.35;99839.09;4917417;29;20047;-67
2021/12/25 04:17:24;;;;;;;16.17;10.48;;;;;;;11.03;91.22;99835.16;4917568;29;20059;-67
2021/12/25 04:19:52;;;;;;;20.77;11.35;;;;;;;11.07;90.91;99835.28;4917634;29;20048;-67
2021/12/25 04:22:28;;;;;;;20.73;11.50;;;;;;;11.10;90.62;99826.31;4902573;29;20052;-67
2021/12/25 04:24:56;;;;;;;18.60;11.48;;;;;;;11.15;90.82;99826.09;4917128;29;20056;-69
2021/12/25 04:27:24;;;;;;;18.50;12.02;;;;;;;11.17;90.68;99827.41;4917116;29;20551;-66
2021/12/25 04:30:03;;;;;;;21.38;12.23;;;;;;;11.00;91.32;99830.28;4917601;29;20056;-66
2021/12/25 05:05:40;;;;;;;20.45;12.65;;;;;;;10.89;92.83;99836.56;4939479;29;20499;-68
2021/12/25 05:08:24;;;;;;;24.88;12.82;;;;;;;11.01;93.22;99829.16;4939762;29;20468;-68
2021/12/25 05:10:51;;;;;;;21.85;13.02;;;;;;;11.16;92.38;99834.03;4939437;29;20058;-66
2021/12/25 05:13:18;;;;;;;28.08;12.90;;;;;;;11.01;92.74;99839.38;4941421;29;20047;-67
2021/12/25 05:15:47;;;;;;;23.67;13.38;;;;;;;10.79;93.82;99835.00;4939597;29;20059;-67
2021/12/25 05:18:15;;;;;;;22.33;12.80;;;;;;;10.95;93.98;99832.44;4940973;29;20051;-67
2021/12/25 05:20:42;;;;;;;26.73;13.38;;;;;;;11.04;93.57;99830.41;4939331;29;20059;-66
2021/12/25 05:23:10;;;;;;;20.65;13.27;;;;;;;11.11;93.30;99830.69;4939836;29;20052;-67
2021/12/25 05:25:37;;;;;;;23.00;12.82;;;;;;;11.16;92.90;99833.22;4922675;29;20059;-67
2021/12/25 05:28:05;;;;;;;21.60;13.43;;;;;;;11.17;92.79;99835.66;4939144;29;20055;-67
2021/12/25 05:30:32;;;;;;;22.45;13.07;;;;;;;11.20;92.10;99829.47;4938622;29;20060;-67
2021/12/25 05:33:18;;;;;;;22.08;13.45;;;;;;;11.11;91.76;99837.00;4938589;29;20051;-68
2021/12/25 05:36:01;;;;;;;21.27;13.50;;;;;;;11.05;92.68;99837.56;4938139;29;20063;-66
2021/12/25 05:38:48;;;;;;;19.73;13.15;;;;;;;11.07;93.12;99844.31;4940052;29;20063;-66
2021/12/25 05:41:28;;;;;;;23.35;13.13;;;;;;;11.18;92.65;99841.97;4939490;29;20503;-67
2021/12/25 05:43:56;;;;;;;24.00;13.70;;;;;;;11.08;92.91;99843.19;4954619;29;20159;-66
2021/12/25 05:46:49;;;;;;;20.45;13.10;;;;;;;11.10;92.94;99842.84;4939276;29;20047;-66
2021/12/25 05:49:18;;;;;;;24.27;13.77;;;;;;;11.00;93.30;99840.53;4938751;29;20490;-66
2021/12/25 05:52:23;;;;;;;22.85;14.10;;;;;;;11.07;93.28;99852.59;4934626;29;20067;-67
2021/12/25 05:55:26;;;;;;;26.85;16.33;;;;;;;11.30;92.43;99845.56;4917382;29;20064;-66
2021/12/25 05:58:25;;;;;;;26.05;14.00;;;;;;;11.12;92.36;99840.56;4939014;29;20047;-67
2021/12/25 06:01:13;;;;;;;23.88;13.75;;;;;;;11.14;92.34;99841.06;4938364;29;20060;-67
2021/12/25 06:03:41;;;;;;;28.85;14.40;;;;;;;11.18;92.17;99845.53;4923968;29;20056;-67
2021/12/25 06:06:08;;;;;;;25.58;14.50;;;;;;;11.16;92.02;99838.72;4903621;29;20056;-67
2021/12/25 06:08:35;;;;;;;21.92;12.95;;;;;;;11.10;92.43;99838.16;4921200;29;20048;-67
2021/12/25 06:11:04;;;;;;;22.10;13.80;;;;;;;11.21;91.88;99844.03;4920620;29;20052;-68
2021/12/25 06:13:43;;;;;;;30.05;13.73;;;;;;;11.23;91.75;99848.06;4903765;29;20059;-67
2021/12/25 06:16:11;;;;;;;24.60;12.98;;;;;;;11.22;92.12;99846.47;4924584;29;20063;-67
2021/12/25 06:18:50;;;;;;;23.38;13.80;;;;;;;11.09;92.38;99847.56;4920956;29;20051;-67
2021/12/25 06:21:23;;;;;;;24.27;13.82;;;;;;;11.16;92.40;99849.75;4919601;29;20059;-68
2021/12/25 06:24:13;;;;;;;20.13;13.13;;;;;;;11.03;93.02;99850.88;4920513;29;20059;-69
2021/12/25 06:26:56;;;;;;;24.55;14.15;;;;;;;10.97;93.09;99847.50;4919454;29;20044;-69
2021/12/25 06:29:37;;;;;;;26.60;12.85;;;;;;;10.93;93.71;99854.81;4919184;29;20068;-70
2021/12/25 06:32:18;;;;;;;20.92;13.00;;;;;;;11.11;92.82;99850.78;4918897;29;20056;-69
2021/12/25 06:35:15;;;;;;;19.95;12.75;;;;;;;11.25;91.75;99856.00;4920308;29;20056;-69
2021/12/25 06:37:55;;;;;;;;;;;;;;;11.11;92.42;99867.31;4921196;29;20060;-70
2021/12/25 06:41:02;;;;;;;23.70;14.02;;;;;;;11.12;92.38;99868.13;4919746;29;19923;-69
2021/12/25 06:43:32;;;;;;;21.83;14.20;;;;;;;11.10;92.48;99862.97;4918517;29;20055;-69
2021/12/25 06:46:00;;;;;;;19.58;12.73;;;;;;;11.16;92.21;99866.28;4918613;29;20067;-69
2021/12/25 06:48:28;;;;;;;20.30;11.88;;;;;;;11.20;92.97;99857.03;4920190;29;20071;-68
2021/12/25 06:51:11;;;;;;;20.38;12.30;;;;;;;11.22;92.68;99862.19;4918884;29;20055;-68
2021/12/25 06:53:51;;;;;;;19.00;12.85;;;;;;;11.22;92.42;99865.78;4918965;29;20067;-70
2021/12/25 06:56:37;;;;;;;20.58;12.35;;;;;;;11.04;93.14;99858.78;4918377;29;20064;-69
2021/12/25 06:59:06;;;;;;;20.90;12.40;;;;;;;11.30;92.23;99862.13;4918236;29;20517;-70
2021/12/25 07:01:40;;;;;;;19.67;12.20;;;;;;;11.20;92.54;99856.22;4918923;29;20052;-69
2021/12/25 07:04:13;;;;;;;21.25;13.02;;;;;;;11.26;92.52;99858.41;4922140;29;20059;-69
2021/12/25 07:07:10;;;;;;;20.42;11.60;;;;;;;11.44;92.06;99859.06;4933429;29;20063;-69
2021/12/25 07:09:51;;;;;;;20.15;12.23;;;;;;;11.27;91.76;99860.03;4937484;29;20051;-69
2021/12/25 07:12:31;;;;;;;18.15;12.38;;;;;;;11.31;91.66;99865.69;4937333;29;20060;-69
2021/12/25 07:15:14;;;;;;;22.55;12.70;;;;;;;11.23;91.87;99861.03;4936608;29;20055;-68
2021/12/25 07:18:03;;;;;;;20.15;12.95;;;;;;;11.03;92.50;99870.97;4953185;29;20052;-69
2021/12/25 07:21:03;;;;;;;24.10;13.25;;;;;;;11.23;92.29;99863.81;4926534;29;20067;-69
2021/12/25 07:23:47;;;;;;;19.48;12.73;;;;;;;11.17;92.32;99862.41;4937508;29;20074;-69
2021/12/25 07:26:31;;;;;;;21.50;13.18;;;;;;;11.22;91.60;99865.78;4936839;29;20056;-69
2021/12/25 07:29:17;;;;;;;22.52;13.00;;;;;;;11.05;92.71;99863.16;4938564;29;20059;-69
2021/12/25 07:31:44;;;;;;;25.83;14.05;;;;;;;11.22;92.44;99865.78;4938518;29;20048;-69
2021/12/25 07:34:11;;;;;;;22.40;13.95;;;;;;;11.12;92.23;99865.38;4936626;29;20070;-69
2021/12/25 07:36:39;;;;;;;24.25;15.18;;;;;;;11.20;92.45;99854.28;4937976;29;20056;-71
2021/12/25 07:39:07;;;;;;;22.77;13.50;;;;;;;11.37;91.31;99864.31;4938300;29;20067;-69
2021/12/25 07:41:34;;;;;;;25.35;14.07;;;;;;;11.33;91.38;99871.69;4938470;29;20047;-68
2021/12/25 07:44:01;;;;;;;25.20;14.40;;;;;;;11.30;91.37;99867.63;4938153;29;20087;-69
2021/12/25 07:46:51;;;;;;;24.77;13.40;;;;;;;11.27;91.20;99871.06;4937773;29;20060;-69
2021/12/25 07:49:20;;;;;;;25.10;14.05;;;;;;;11.09;92.00;99877.06;4952812;28;20048;-69
2021/12/25 07:51:48;;;;;;;24.25;14.05;;;;;;;11.17;92.15;99881.72;4936916;29;20065;-69
2021/12/25 07:54:15;;;;;;;26.25;14.00;;;;;;;11.09;92.60;99874.31;4938067;29;20476;-70
2021/12/25 07:56:42;;;;;;;25.90;13.60;;;;;;;11.22;91.81;99867.72;4937537;29;20070;-69
2021/12/25 07:59:09;;;;;;;22.85;14.35;;;;;;;11.20;91.67;99870.81;4936644;29;20052;-69
2021/12/25 08:01:37;;;;;;;25.98;14.55;;;;;;;11.16;91.70;99867.13;4938141;29;20047;-70
2021/12/25 08:04:05;;;;;;;26.95;15.32;;;;;;;11.13;92.01;99878.81;4920696;29;20056;-69
2021/12/25 08:06:32;;;;;;;27.98;15.13;;;;;;;11.21;91.63;99871.59;4918761;29;20044;-69
2021/12/25 08:09:01;;;;;;;27.38;15.05;;;;;;;11.11;91.86;99880.28;4918835;29;20052;-69
2021/12/25 08:11:30;;;;;;;26.00;14.88;;;;;;;11.18;92.05;99889.63;4918672;29;20052;-70
2021/12/25 08:13:58;;;;;;;27.10;15.05;;;;;;;10.99;92.47;99889.31;4918637;29;20389;-70
2021/12/25 08:16:25;;;;;;;26.83;15.40;;;;;;;11.07;91.86;99893.16;4918563;29;20075;-69
2021/12/25 08:18:53;;;;;;;24.52;14.52;;;;;;;11.10;92.25;99896.03;4918937;29;20418;-69
2021/12/25 08:21:39;;;;;;;26.20;14.73;;;;;;;11.00;92.58;99899.19;4904760;29;20055;-69
2021/12/25 08:24:27;;;;;;;27.80;15.18;;;;;;;11.10;92.78;99892.47;4918778;29;20056;-70
2021/12/25 08:27:13;;;;;;;24.52;14.57;;;;;;;11.17;92.65;99890.78;4918630;29;20052;-69
2021/12/25 08:30:02;;;;;;;24.67;14.80;;;;;;;11.25;91.68;99889.09;4917221;29;20508;-69
2021/12/25 08:32:50;;;;;;;26.20;14.93;;;;;;;11.33;91.32;99877.97;4917222;29;20056;-69
2021/12/25 08:35:36;;;;;;;24.33;13.90;;;;;;;11.33;91.23;99880.72;4917661;29;20047;-69
2021/12/25 08:38:03;;;;;;;25.85;14.20;;;;;;;11.46;91.15;99886.28;4918709;29;20056;-69
2021/12/25 08:40:30;;;;;;;24.65;14.68;;;;;;;11.46;90.54;99892.63;4918501;29;20063;-68
2021/12/25 08:43:01;;;;;;;22.00;13.95;;;;;;;11.48;90.24;99895.03;4917461;29;20067;-68
2021/12/25 08:45:44;;;;;;;28.90;15.25;;;;;;;11.37;90.57;99894.66;4917005;29;20567;-69
2021/12/25 08:48:15;;;;;;;24.00;14.73;;;;;;;11.31;90.12;99891.28;4917478;29;20049;-69
2021/12/25 08:50:49;;;;;;;21.48;13.57;;;;;;;11.22;90.54;99896.09;4918605;29;20063;-69
2021/12/25 08:53:18;;;;;;;24.08;13.93;;;;;;;11.23;90.65;99896.88;4917630;29;20040;-70
2021/12/25 08:55:46;;;;;;;26.67;14.25;;;;;;;11.32;90.54;99892.91;4916900;29;20068;-68
2021/12/25 08:58:14;;;;;;;22.15;13.07;;;;;;;11.33;90.01;99905.53;4917145;29;20412;-70
2021/12/25 09:00:42;;;;;;;23.88;13.23;;;;;;;11.62;89.18;99904.63;4918434;29;20056;-71
2021/12/25 09:03:10;;;;;;;29.02;17.15;;;;;;;11.41;89.38;99905.81;4918595;29;20064;-69
2021/12/25 09:05:38;;;;;;;36.17;23.13;;;;;;;11.52;89.96;99909.78;4918502;29;20048;-68
2021/12/25 09:08:05;;;;;;;33.75;21.13;;;;;;;11.72;88.43;99906.16;4917315;29;20071;-69
2021/12/25 09:10:34;;;;;;;23.90;14.25;;;;;;;11.53;88.33;99900.34;4918175;29;20048;-69
2021/12/25 09:13:02;;;;;;;20.70;13.18;;;;;;;11.41;89.16;99901.09;4918583;29;20420;-69
2021/12/25 09:15:30;;;;;;;23.17;13.45;;;;;;;11.57;88.73;99906.78;4918079;29;20062;-68
2021/12/25 09:17:57;;;;;;;22.27;13.18;;;;;;;11.51;88.74;99905.38;4918286;29;20419;-70
2021/12/25 09:20:25;;;;;;;22.50;13.63;;;;;;;11.47;89.23;99915.50;4918530;29;20052;-70
2021/12/25 09:22:52;;;;;;;24.48;13.85;;;;;;;11.43;89.67;99907.09;4918537;29;20051;-69
2021/12/25 09:25:19;;;;;;;18.10;13.07;;;;;;;11.43;89.29;99909.84;4918084;29;20055;-69
2021/12/25 09:27:46;;;;;;;20.08;12.65;;;;;;;11.56;88.58;99907.94;4918383;29;20431;-70
2021/12/25 09:30:14;;;;;;;22.10;12.98;;;;;;;11.47;88.82;99913.56;4919932;29;20052;-68
2021/12/25 09:32:41;;;;;;;25.33;14.20;;;;;;;11.51;88.90;99914.47;4921916;29;20052;-69
2021/12/25 09:35:09;;;;;;;23.40;14.50;;;;;;;11.56;89.20;99913.47;4921816;29;20070;-69
2021/12/25 09:37:37;;;;;;;21.25;12.40;;;;;;;11.39;88.69;99925.44;4921447;29;20059;-69
2021/12/25 09:40:06;;;;;;;17.73;11.90;;;;;;;11.35;89.46;99921.75;4921606;29;20047;-69
2021/12/25 09:42:34;;;;;;;20.02;12.88;;;;;;;11.40;89.08;99920.75;4921788;29;20056;-70
2021/12/25 09:45:01;;;;;;;18.63;11.38;;;;;;;11.48;88.37;99917.09;4920303;29;20086;-70
2021/12/25 09:47:29;;;;;;;19.15;11.18;;;;;;;11.49;87.84;99924.25;4921241;29;20081;-69
2021/12/25 09:49:56;;;;;;;19.23;11.98;;;;;;;11.40;87.86;99929.84;4921852;29;20052;-69
2021/12/25 09:52:23;;;;;;;16.85;11.52;;;;;;;11.46;87.16;99927.66;4904509;29;20056;-68
2021/12/25 09:54:50;;;;;;;20.67;12.25;;;;;;;11.14;89.24;99927.28;4920244;29;20055;-69
2021/12/25 09:57:18;;;;;;;16.85;11.30;;;;;;;11.25;89.37;99930.44;4921180;29;20056;-69
2021/12/25 09:59:46;;;;;;;16.98;11.45;;;;;;;11.38;88.93;99923.84;4920062;29;20055;-69
2021/12/25 10:02:15;;;;;;;21.27;12.23;;;;;;;11.14;88.77;99927.28;4922946;29;20588;-69
2021/12/25 10:04:51;;;;;;;21.35;12.75;;;;;;;10.98;90.56;99937.28;4940749;29;20141;-69
2021/12/25 10:07:30;;;;;;;18.25;12.45;;;;;;;10.85;91.94;99926.50;4939477;29;20063;-68
2021/12/25 10:10:09;;;;;;;35.03;22.58;;;;;;;11.08;91.58;99928.63;4939914;29;20052;-69
2021/12/25 10:12:42;;;;;;;20.88;13.07;;;;;;;11.13;91.33;99933.13;4938799;29;20047;-69
2021/12/25 10:15:17;;;;;;;18.85;12.60;;;;;;;11.19;90.46;99932.59;4939864;29;20495;-69
2021/12/25 10:17:50;;;;;;;20.88;13.25;;;;;;;11.52;88.77;99918.03;4939745;29;20082;-69
2021/12/25 10:20:22;;;;;;;19.25;12.18;;;;;;;11.27;89.31;99920.69;4939877;29;20419;-70
2021/12/25 10:23:12;;;;;;;20.30;12.35;;;;;;;11.19;90.31;99920.78;4938311;29;20055;-70
2021/12/25 10:25:53;;;;;;;21.30;14.02;;;;;;;11.42;89.75;99910.97;4939807;29;20059;-70
2021/12/25 10:28:28;;;;;;;20.42;13.15;;;;;;;11.09;89.33;99915.63;4939539;29;20055;-69
2021/12/25 10:30:58;;;;;;;20.52;13.18;;;;;;;11.05;90.47;99912.75;4939733;29;20059;-70
2021/12/25 10:33:32;;;;;;;21.63;13.23;;;;;;;11.38;90.93;99912.00;4939343;29;20056;-69
2021/12/25 10:36:24;;;;;;;20.98;12.82;;;;;;;11.41;88.65;99914.91;4937899;29;20075;-69
2021/12/25 10:38:59;;;;;;;18.35;11.55;;;;;;;11.35;88.84;99916.22;4938515;29;20067;-70
2021/12/25 10:41:27;;;;;;;19.63;11.73;;;;;;;11.35;89.42;99913.47;4938884;29;20088;-68
2021/12/25 10:44:20;;;;;;;18.45;11.98;;;;;;;11.55;88.75;99915.41;4937146;29;20063;-69
2021/12/25 10:46:50;;;;;;;18.35;12.52;;;;;;;11.66;88.35;99913.06;4939284;29;20058;-69
2021/12/25 10:49:19;;;;;;;24.02;16.38;;;;;;;11.66;87.79;99907.56;4939113;29;20526;-69
2021/12/25 10:51:47;;;;;;;36.60;25.75;;;;;;;11.96;86.99;99909.81;4939346;29;20055;-69
2021/12/25 10:54:16;;;;;;;40.92;27.00;;;;;;;12.04;86.38;99903.41;4953356;29;20047;-69
2021/12/25 10:56:46;;;;;;;25.25;18.08;;;;;;;12.05;86.15;99898.66;4938664;29;20058;-69
2021/12/25 10:59:18;;;;;;;35.58;24.40;;;;;;;12.15;85.40;99898.22;4938912;29;20494;-69
2021/12/25 11:01:50;;;;;;;27.10;18.77;;;;;;;11.88;85.51;99896.09;4939094;29;20051;-70
2021/12/25 11:04:25;;;;;;;22.73;13.38;;;;;;;11.96;85.80;99886.94;4939421;29;20048;-70
2021/12/25 11:06:53;;;;;;;22.17;13.68;;;;;;;11.51;86.49;99886.06;4939017;29;20059;-69
2021/12/25 11:09:20;;;;;;;21.25;12.55;;;;;;;11.22;88.98;99890.59;4939278;29;20055;-70
2021/12/25 11:12:17;;;;;;;21.23;13.20;;;;;;;11.42;88.71;99888.91;4938984;29;20055;-69
2021/12/25 11:14:50;;;;;;;22.88;13.18;;;;;;;11.57;88.68;99884.72;4938825;29;20063;-70
2021/12/25 11:17:23;;;;;;;22.05;13.00;;;;;;;11.52;87.85;99883.00;4938694;29;20058;-70
2021/12/25 11:20:01;;;;;;;25.35;13.10;;;;;;;11.50;88.56;99871.50;4938675;29;20043;-68
2021/12/25 11:22:47;;;;;;;19.00;12.63;;;;;;;11.59;88.74;99872.22;4937517;29;20052;-69
2021/12/25 11:25:15;;;;;;;25.27;16.30;;;;;;;11.59;88.50;99877.75;4938870;29;20063;-69
2021/12/25 11:27:43;;;;;;;39.45;23.40;;;;;;;11.37;89.57;99874.56;4937340;29;20519;-69
2021/12/25 11:30:11;;;;;;;20.55;14.20;;;;;;;11.69;89.97;99868.25;4938503;29;20043;-70
2021/12/25 11:32:38;;;;;;;20.13;13.50;;;;;;;11.83;89.08;99869.56;4939021;29;20063;-70
2021/12/25 11:35:05;;;;;;;20.25;11.98;;;;;;;11.86;88.67;99868.03;4938906;29;20055;-70
2021/12/25 11:37:33;;;;;;;23.08;12.45;;;;;;;11.81;88.47;99858.03;4936933;29;20092;-70
2021/12/25 11:40:00;;;;;;;18.33;12.10;;;;;;;11.64;88.86;99863.75;4938375;29;20055;-69
2021/12/25 11:42:29;;;;;;;21.80;13.18;;;;;;;11.70;88.57;99861.59;4937930;29;20047;-68
2021/12/25 11:44:56;;;;;;;19.17;12.63;;;;;;;11.81;88.37;99858.03;4938141;29;20477;-69
2021/12/25 11:47:47;;;;;;;18.35;12.65;;;;;;;12.02;87.95;99853.25;4952734;28;20055;-69
2021/12/25 11:50:22;;;;;;;20.15;12.82;;;;;;;11.98;87.61;99863.34;4937249;29;20510;-69
2021/12/25 11:58:41;;;;;;;19.85;11.50;;;;;;;12.03;86.20;99846.56;4937684;29;20071;-66
2021/12/25 12:01:25;;;;;;;22.15;12.68;;;;;;;11.65;88.15;99843.28;4938877;29;20059;-66
2021/12/25 12:03:55;;;;;;;22.17;12.63;;;;;;;11.62;88.21;99845.91;4922315;29;20048;-68
2021/12/25 12:06:45;;;;;;;18.58;12.50;;;;;;;12.04;87.31;99852.91;4919363;29;20059;-66
2021/12/25 12:09:27;;;;;;;19.38;12.70;;;;;;;12.07;86.53;99849.44;4917963;29;20048;-67
2021/12/25 12:12:34;;;;;;;17.70;12.25;;;;;;;12.29;85.93;99851.75;4919111;29;20048;-66
2021/12/25 12:15:19;;;;;;;21.27;13.73;;;;;;;12.47;85.59;99847.59;4919177;29;20083;-67
2021/12/25 12:18:24;;;;;;;26.38;18.65;;;;;;;12.41;85.10;99854.53;4917129;29;20063;-67
2021/12/25 12:21:12;;;;;;;48.28;35.17;;;;;;;12.11;86.18;99853.13;4917818;29;20048;-67
2021/12/25 12:24:21;;;;;;;43.17;24.30;;;;;;;12.43;85.92;99850.25;4919232;29;20059;-66
2021/12/25 12:26:52;;;;;;;26.17;15.32;;;;;;;12.40;85.28;99847.38;4918857;29;20052;-67
2021/12/25 12:29:38;;;;;;;24.42;15.07;;;;;;;12.45;85.41;99852.66;4918761;29;20066;-66
2021/12/25 12:32:07;;;;;;;37.08;23.90;;;;;;;12.43;84.91;99854.94;4918971;29;20059;-67
2021/12/25 12:34:40;;;;;;;24.10;14.65;;;;;;;12.26;85.67;99844.16;4918958;29;20130;-68
2021/12/25 12:37:14;;;;;;;19.23;14.32;;;;;;;12.24;86.27;99832.66;4918758;29;20500;-67
2021/12/25 12:40:05;;;;;;;22.95;14.93;;;;;;;12.21;85.45;99836.09;4918794;29;20055;-67
2021/12/25 12:42:45;;;;;;;24.20;14.98;;;;;;;12.30;85.79;99834.84;4917819;29;20056;-68
2021/12/25 12:45:14;;;;;;;23.10;16.88;;;;;;;12.29;86.05;99832.44;4917612;29;20059;-67
2021/12/25 12:48:18;;;;;;;37.10;23.20;;;;;;;12.35;85.28;99842.91;4917624;29;20048;-67
2021/12/25 12:50:48;;;;;;;24.75;16.98;;;;;;;12.40;86.26;99837.13;4918751;29;20051;-66
2021/12/25 12:53:17;;;;;;;36.75;21.83;;;;;;;12.40;85.65;99833.56;4918668;29;20048;-66
2021/12/25 12:55:47;;;;;;;47.90;27.65;;;;;;;12.39;85.71;99845.78;4918517;29;20361;-67
2021/12/25 12:58:20;;;;;;;24.98;15.23;;;;;;;12.39;85.43;99843.81;4918150;29;20060;-67
2021/12/25 13:00:47;;;;;;;25.55;14.98;;;;;;;12.13;86.48;99842.56;4917315;29;20048;-67
2021/12/25 13:03:15;;;;;;;20.02;13.85;;;;;;;12.20;86.21;99838.06;4929656;29;20408;-67
2021/12/25 13:05:48;;;;;;;22.33;13.95;;;;;;;12.15;85.95;99838.28;4955848;29;20064;-67
2021/12/25 13:08:32;;;;;;;21.00;13.18;;;;;;;12.07;85.90;99847.50;4941222;29;20052;-66